sensor_id;sensor_type;location;lat;lon;timestamp;P1;durP1;ratioP1;P2;durP2;ratioP2
6723;SDS011;3399;52.530;13.304;2023-12-04T00:01:28;27.07;;;16.07;;
6723;SDS011;3399;52.530;13.304;2023-12-04T00:03:53;24.90;;;16.50;;
6723;SDS011;3399;52.530;13.304;2023-12-04T00:06:19;24.17;;;15.80;;
6723;SDS011;3399;52.530;13.304;2023-12-04T00:08:44;25.03;;;16.83;;
6723;SDS011;3399;52.530;13.304;2023-12-04T00:11:10;26.97;;;17.10;;
6723;SDS011;3399;52.530;13.304;2023-12-04T00:13:35;26.63;;;16.70;;
6723;SDS011;3399;52.530;13.304;2023-12-04T00:16:01;27.23;;;16.13;;
6723;SDS011;3399;52.530;13.304;2023-12-04T00:18:27;27.27;;;17.47;;
6723;SDS011;3399;52.530;13.304;2023-12-04T00:20:52;23.77;;;15.27;;
6723;SDS011;3399;52.530;13.304;2023-12-04T00:23:18;23.53;;;16.00;;
6723;SDS011;3399;52.530;13.304;2023-12-04T00:25:43;29.33;;;17.43;;
6723;SDS011;3399;52.530;13.304;2023-12-04T00:28:09;27.10;;;17.27;;
6723;SDS011;3399;52.530;13.304;2023-12-04T00:30:34;29.87;;;19.10;;
6723;SDS011;3399;52.530;13.304;2023-12-04T00:33:00;29.30;;;18.37;;
6723;SDS011;3399;52.530;13.304;2023-12-04T00:35:25;26.53;;;17.50;;
6723;SDS011;3399;52.530;13.304;2023-12-04T00:37:51;31.10;;;18.57;;
6723;SDS011;3399;52.530;13.304;2023-12-04T00:40:17;30.20;;;17.33;;
6723;SDS011;3399;52.530;13.304;2023-12-04T00:42:42;34.53;;;19.40;;
6723;SDS011;3399;52.530;13.304;2023-12-04T00:45:08;31.77;;;20.93;;
6723;SDS011;3399;52.530;13.304;2023-12-04T00:47:34;30.23;;;17.90;;
6723;SDS011;3399;52.530;13.304;2023-12-04T00:49:59;32.07;;;20.10;;
6723;SDS011;3399;52.530;13.304;2023-12-04T00:52:25;35.17;;;20.67;;
6723;SDS011;3399;52.530;13.304;2023-12-04T00:54:50;34.53;;;18.53;;
6723;SDS011;3399;52.530;13.304;2023-12-04T00:57:16;30.70;;;19.30;;
6723;SDS011;3399;52.530;13.304;2023-12-04T00:59:41;35.90;;;18.57;;
6723;SDS011;3399;52.530;13.304;2023-12-04T01:02:07;31.20;;;19.90;;
6723;SDS011;3399;52.530;13.304;2023-12-04T01:04:33;34.43;;;20.03;;
6723;SDS011;3399;52.530;13.304;2023-12-04T01:06:58;31.90;;;19.60;;
6723;SDS011;3399;52.530;13.304;2023-12-04T01:09:24;36.57;;;21.37;;
6723;SDS011;3399;52.530;13.304;2023-12-04T01:11:51;29.83;;;19.60;;
6723;SDS011;3399;52.530;13.304;2023-12-04T01:14:17;34.80;;;20.77;;
6723;SDS011;3399;52.530;13.304;2023-12-04T01:16:42;32.20;;;19.67;;
6723;SDS011;3399;52.530;13.304;2023-12-04T01:19:08;32.63;;;20.20;;
6723;SDS011;3399;52.530;13.304;2023-12-04T01:21:34;32.60;;;19.53;;
6723;SDS011;3399;52.530;13.304;2023-12-04T01:23:59;35.13;;;20.87;;
6723;SDS011;3399;52.530;13.304;2023-12-04T01:26:25;31.93;;;21.27;;
6723;SDS011;3399;52.530;13.304;2023-12-04T01:28:50;33.50;;;21.20;;
6723;SDS011;3399;52.530;13.304;2023-12-04T01:31:15;32.33;;;21.27;;
6723;SDS011;3399;52.530;13.304;2023-12-04T01:33:41;36.90;;;20.97;;
6723;SDS011;3399;52.530;13.304;2023-12-04T01:36:07;33.97;;;20.63;;
6723;SDS011;3399;52.530;13.304;2023-12-04T01:38:32;37.50;;;21.53;;
6723;SDS011;3399;52.530;13.304;2023-12-04T01:40:58;40.43;;;22.43;;
6723;SDS011;3399;52.530;13.304;2023-12-04T01:43:23;36.40;;;22.83;;
6723;SDS011;3399;52.530;13.304;2023-12-04T01:45:49;31.43;;;21.93;;
6723;SDS011;3399;52.530;13.304;2023-12-04T01:48:17;34.77;;;21.20;;
6723;SDS011;3399;52.530;13.304;2023-12-04T01:50:42;33.53;;;21.63;;
6723;SDS011;3399;52.530;13.304;2023-12-04T01:53:08;37.13;;;22.67;;
6723;SDS011;3399;52.530;13.304;2023-12-04T01:55:34;35.27;;;22.20;;
6723;SDS011;3399;52.530;13.304;2023-12-04T01:58:02;39.10;;;21.33;;
6723;SDS011;3399;52.530;13.304;2023-12-04T02:00:30;35.87;;;20.50;;
6723;SDS011;3399;52.530;13.304;2023-12-04T02:02:56;35.50;;;22.00;;
6723;SDS011;3399;52.530;13.304;2023-12-04T02:05:23;35.80;;;20.47;;
6723;SDS011;3399;52.530;13.304;2023-12-04T02:07:49;36.50;;;21.03;;
6723;SDS011;3399;52.530;13.304;2023-12-04T02:10:15;38.40;;;24.27;;
6723;SDS011;3399;52.530;13.304;2023-12-04T02:12:40;36.37;;;22.00;;
6723;SDS011;3399;52.530;13.304;2023-12-04T02:15:06;30.60;;;21.70;;
6723;SDS011;3399;52.530;13.304;2023-12-04T02:17:33;33.27;;;20.77;;
6723;SDS011;3399;52.530;13.304;2023-12-04T02:19:59;33.90;;;20.60;;
6723;SDS011;3399;52.530;13.304;2023-12-04T02:22:25;30.77;;;20.23;;
6723;SDS011;3399;52.530;13.304;2023-12-04T02:24:51;36.37;;;21.00;;
6723;SDS011;3399;52.530;13.304;2023-12-04T02:27:23;43.33;;;22.27;;
6723;SDS011;3399;52.530;13.304;2023-12-04T02:29:58;36.97;;;21.93;;
6723;SDS011;3399;52.530;13.304;2023-12-04T02:32:26;38.30;;;20.67;;
6723;SDS011;3399;52.530;13.304;2023-12-04T02:34:54;38.80;;;22.40;;
6723;SDS011;3399;52.530;13.304;2023-12-04T02:37:21;34.73;;;19.50;;
6723;SDS011;3399;52.530;13.304;2023-12-04T02:39:47;29.40;;;20.57;;
6723;SDS011;3399;52.530;13.304;2023-12-04T02:42:17;30.40;;;20.03;;
6723;SDS011;3399;52.530;13.304;2023-12-04T02:44:44;34.90;;;21.90;;
6723;SDS011;3399;52.530;13.304;2023-12-04T02:47:09;36.53;;;19.93;;
6723;SDS011;3399;52.530;13.304;2023-12-04T02:49:35;32.00;;;21.03;;
6723;SDS011;3399;52.530;13.304;2023-12-04T02:52:00;34.23;;;21.43;;
6723;SDS011;3399;52.530;13.304;2023-12-04T02:54:27;38.00;;;21.43;;
6723;SDS011;3399;52.530;13.304;2023-12-04T02:56:53;33.20;;;20.23;;
6723;SDS011;3399;52.530;13.304;2023-12-04T02:59:18;35.60;;;19.50;;
6723;SDS011;3399;52.530;13.304;2023-12-04T03:01:44;30.93;;;19.17;;
6723;SDS011;3399;52.530;13.304;2023-12-04T03:04:09;31.07;;;20.17;;
6723;SDS011;3399;52.530;13.304;2023-12-04T03:06:35;33.37;;;21.63;;
6723;SDS011;3399;52.530;13.304;2023-12-04T03:09:02;35.70;;;21.07;;
6723;SDS011;3399;52.530;13.304;2023-12-04T03:11:28;29.33;;;18.80;;
6723;SDS011;3399;52.530;13.304;2023-12-04T03:13:54;35.33;;;20.07;;
6723;SDS011;3399;52.530;13.304;2023-12-04T03:16:19;34.67;;;20.73;;
6723;SDS011;3399;52.530;13.304;2023-12-04T03:18:45;34.57;;;20.43;;
6723;SDS011;3399;52.530;13.304;2023-12-04T03:21:11;31.93;;;20.27;;
6723;SDS011;3399;52.530;13.304;2023-12-04T03:23:36;30.70;;;20.50;;
6723;SDS011;3399;52.530;13.304;2023-12-04T03:26:02;32.73;;;19.77;;
6723;SDS011;3399;52.530;13.304;2023-12-04T03:28:28;28.73;;;19.77;;
6723;SDS011;3399;52.530;13.304;2023-12-04T03:30:53;33.97;;;18.43;;
6723;SDS011;3399;52.530;13.304;2023-12-04T03:33:19;31.83;;;18.73;;
6723;SDS011;3399;52.530;13.304;2023-12-04T03:35:45;34.87;;;19.97;;
6723;SDS011;3399;52.530;13.304;2023-12-04T03:38:10;28.73;;;19.07;;
6723;SDS011;3399;52.530;13.304;2023-12-04T03:40:36;34.10;;;20.00;;
6723;SDS011;3399;52.530;13.304;2023-12-04T03:43:01;28.43;;;17.60;;
6723;SDS011;3399;52.530;13.304;2023-12-04T03:45:27;28.37;;;18.50;;
6723;SDS011;3399;52.530;13.304;2023-12-04T03:47:52;28.20;;;18.80;;
6723;SDS011;3399;52.530;13.304;2023-12-04T03:50:18;26.80;;;18.33;;
6723;SDS011;3399;52.530;13.304;2023-12-04T03:52:44;27.03;;;16.30;;
6723;SDS011;3399;52.530;13.304;2023-12-04T03:55:09;29.03;;;18.10;;
6723;SDS011;3399;52.530;13.304;2023-12-04T03:57:35;28.93;;;17.97;;
6723;SDS011;3399;52.530;13.304;2023-12-04T04:00:00;28.00;;;17.10;;
6723;SDS011;3399;52.530;13.304;2023-12-04T04:02:26;31.10;;;19.07;;
6723;SDS011;3399;52.530;13.304;2023-12-04T04:04:52;30.23;;;20.07;;
6723;SDS011;3399;52.530;13.304;2023-12-04T04:07:18;30.87;;;18.57;;
6723;SDS011;3399;52.530;13.304;2023-12-04T04:09:43;28.67;;;19.03;;
6723;SDS011;3399;52.530;13.304;2023-12-04T04:12:09;28.07;;;18.77;;
6723;SDS011;3399;52.530;13.304;2023-12-04T04:14:34;28.90;;;18.17;;
6723;SDS011;3399;52.530;13.304;2023-12-04T04:17:00;29.47;;;19.27;;
6723;SDS011;3399;52.530;13.304;2023-12-04T04:19:25;31.07;;;18.73;;
6723;SDS011;3399;52.530;13.304;2023-12-04T04:21:51;29.03;;;20.07;;
6723;SDS011;3399;52.530;13.304;2023-12-04T04:24:16;32.63;;;18.27;;
6723;SDS011;3399;52.530;13.304;2023-12-04T04:26:42;27.53;;;18.33;;
6723;SDS011;3399;52.530;13.304;2023-12-04T04:29:07;29.20;;;19.07;;
6723;SDS011;3399;52.530;13.304;2023-12-04T04:31:34;29.93;;;17.90;;
6723;SDS011;3399;52.530;13.304;2023-12-04T04:34:00;26.47;;;18.33;;
6723;SDS011;3399;52.530;13.304;2023-12-04T04:36:26;29.67;;;18.07;;
6723;SDS011;3399;52.530;13.304;2023-12-04T04:38:51;28.53;;;17.20;;
6723;SDS011;3399;52.530;13.304;2023-12-04T04:41:17;28.43;;;18.10;;
6723;SDS011;3399;52.530;13.304;2023-12-04T04:43:42;32.13;;;19.00;;
6723;SDS011;3399;52.530;13.304;2023-12-04T04:46:08;24.80;;;16.83;;
6723;SDS011;3399;52.530;13.304;2023-12-04T04:48:34;25.50;;;19.13;;
6723;SDS011;3399;52.530;13.304;2023-12-04T04:51:00;32.60;;;18.23;;
6723;SDS011;3399;52.530;13.304;2023-12-04T04:53:25;26.47;;;18.17;;
6723;SDS011;3399;52.530;13.304;2023-12-04T04:55:51;28.00;;;18.40;;
6723;SDS011;3399;52.530;13.304;2023-12-04T04:58:16;29.43;;;17.90;;
6723;SDS011;3399;52.530;13.304;2023-12-04T05:00:43;30.13;;;18.40;;
6723;SDS011;3399;52.530;13.304;2023-12-04T05:03:09;27.53;;;17.47;;
6723;SDS011;3399;52.530;13.304;2023-12-04T05:05:34;29.77;;;19.13;;
6723;SDS011;3399;52.530;13.304;2023-12-04T05:07:59;27.80;;;17.53;;
6723;SDS011;3399;52.530;13.304;2023-12-04T05:10:25;27.97;;;18.10;;
6723;SDS011;3399;52.530;13.304;2023-12-04T05:12:51;25.57;;;16.67;;
6723;SDS011;3399;52.530;13.304;2023-12-04T05:15:16;26.80;;;17.67;;
6723;SDS011;3399;52.530;13.304;2023-12-04T05:17:42;30.47;;;16.20;;
6723;SDS011;3399;52.530;13.304;2023-12-04T05:20:07;26.20;;;17.17;;
6723;SDS011;3399;52.530;13.304;2023-12-04T05:22:34;28.83;;;17.57;;
6723;SDS011;3399;52.530;13.304;2023-12-04T05:25:00;27.37;;;16.37;;
6723;SDS011;3399;52.530;13.304;2023-12-04T05:27:26;26.10;;;17.30;;
6723;SDS011;3399;52.530;13.304;2023-12-04T05:29:52;26.27;;;16.73;;
6723;SDS011;3399;52.530;13.304;2023-12-04T05:32:17;27.10;;;17.20;;
6723;SDS011;3399;52.530;13.304;2023-12-04T05:34:42;28.43;;;16.90;;
6723;SDS011;3399;52.530;13.304;2023-12-04T05:37:08;26.23;;;16.77;;
6723;SDS011;3399;52.530;13.304;2023-12-04T05:39:33;27.20;;;16.63;;
6723;SDS011;3399;52.530;13.304;2023-12-04T05:41:59;24.70;;;15.80;;
6723;SDS011;3399;52.530;13.304;2023-12-04T05:44:25;26.00;;;16.20;;
6723;SDS011;3399;52.530;13.304;2023-12-04T05:46:50;26.13;;;16.30;;
6723;SDS011;3399;52.530;13.304;2023-12-04T05:49:17;28.43;;;18.83;;
6723;SDS011;3399;52.530;13.304;2023-12-04T05:51:42;27.67;;;17.37;;
6723;SDS011;3399;52.530;13.304;2023-12-04T05:54:08;26.47;;;17.07;;
6723;SDS011;3399;52.530;13.304;2023-12-04T05:56:34;23.97;;;15.43;;
6723;SDS011;3399;52.530;13.304;2023-12-04T05:58:59;25.70;;;17.37;;
6723;SDS011;3399;52.530;13.304;2023-12-04T06:01:25;27.50;;;17.67;;
6723;SDS011;3399;52.530;13.304;2023-12-04T06:03:50;28.33;;;17.03;;
6723;SDS011;3399;52.530;13.304;2023-12-04T06:06:15;22.60;;;14.83;;
6723;SDS011;3399;52.530;13.304;2023-12-04T06:08:41;25.00;;;14.93;;
6723;SDS011;3399;52.530;13.304;2023-12-04T06:11:06;24.67;;;15.87;;
6723;SDS011;3399;52.530;13.304;2023-12-04T06:13:32;25.13;;;16.00;;
6723;SDS011;3399;52.530;13.304;2023-12-04T06:15:57;27.77;;;15.93;;
6723;SDS011;3399;52.530;13.304;2023-12-04T06:18:23;22.00;;;14.43;;
6723;SDS011;3399;52.530;13.304;2023-12-04T06:20:49;22.83;;;14.00;;
6723;SDS011;3399;52.530;13.304;2023-12-04T06:23:14;24.20;;;16.10;;
6723;SDS011;3399;52.530;13.304;2023-12-04T06:25:40;28.90;;;16.03;;
6723;SDS011;3399;52.530;13.304;2023-12-04T06:28:06;24.50;;;15.67;;
6723;SDS011;3399;52.530;13.304;2023-12-04T06:30:32;26.27;;;16.77;;
6723;SDS011;3399;52.530;13.304;2023-12-04T06:32:58;22.40;;;15.30;;
6723;SDS011;3399;52.530;13.304;2023-12-04T06:35:24;21.73;;;14.83;;
6723;SDS011;3399;52.530;13.304;2023-12-04T06:37:50;24.90;;;16.17;;
6723;SDS011;3399;52.530;13.304;2023-12-04T06:40:19;26.57;;;15.77;;
6723;SDS011;3399;52.530;13.304;2023-12-04T06:42:44;29.57;;;15.80;;
6723;SDS011;3399;52.530;13.304;2023-12-04T06:45:10;20.97;;;13.13;;
6723;SDS011;3399;52.530;13.304;2023-12-04T06:47:36;21.23;;;13.60;;
6723;SDS011;3399;52.530;13.304;2023-12-04T06:50:05;27.00;;;15.90;;
6723;SDS011;3399;52.530;13.304;2023-12-04T06:52:31;28.30;;;15.77;;
6723;SDS011;3399;52.530;13.304;2023-12-04T06:54:56;26.10;;;15.60;;
6723;SDS011;3399;52.530;13.304;2023-12-04T06:57:21;25.37;;;16.40;;
6723;SDS011;3399;52.530;13.304;2023-12-04T06:59:47;22.10;;;15.17;;
6723;SDS011;3399;52.530;13.304;2023-12-04T07:02:12;25.60;;;15.50;;
6723;SDS011;3399;52.530;13.304;2023-12-04T07:04:38;20.50;;;14.93;;
6723;SDS011;3399;52.530;13.304;2023-12-04T07:07:04;24.23;;;16.27;;
6723;SDS011;3399;52.530;13.304;2023-12-04T07:09:31;26.20;;;15.97;;
6723;SDS011;3399;52.530;13.304;2023-12-04T07:11:57;22.10;;;15.00;;
6723;SDS011;3399;52.530;13.304;2023-12-04T07:14:22;22.83;;;15.60;;
6723;SDS011;3399;52.530;13.304;2023-12-04T07:16:48;25.20;;;15.63;;
6723;SDS011;3399;52.530;13.304;2023-12-04T07:19:14;26.17;;;16.80;;
6723;SDS011;3399;52.530;13.304;2023-12-04T07:21:41;22.17;;;16.50;;
6723;SDS011;3399;52.530;13.304;2023-12-04T07:24:06;22.53;;;14.67;;
6723;SDS011;3399;52.530;13.304;2023-12-04T07:26:33;26.07;;;15.13;;
6723;SDS011;3399;52.530;13.304;2023-12-04T07:28:59;22.47;;;14.97;;
6723;SDS011;3399;52.530;13.304;2023-12-04T07:31:26;24.27;;;15.20;;
6723;SDS011;3399;52.530;13.304;2023-12-04T07:33:52;25.23;;;15.57;;
6723;SDS011;3399;52.530;13.304;2023-12-04T07:36:18;24.83;;;15.03;;
6723;SDS011;3399;52.530;13.304;2023-12-04T07:38:44;20.97;;;13.40;;
6723;SDS011;3399;52.530;13.304;2023-12-04T07:41:10;22.40;;;15.23;;
6723;SDS011;3399;52.530;13.304;2023-12-04T07:43:35;20.93;;;13.47;;
6723;SDS011;3399;52.530;13.304;2023-12-04T07:46:01;21.50;;;14.23;;
6723;SDS011;3399;52.530;13.304;2023-12-04T07:48:28;21.43;;;13.23;;
6723;SDS011;3399;52.530;13.304;2023-12-04T07:50:55;19.03;;;13.13;;
6723;SDS011;3399;52.530;13.304;2023-12-04T07:53:20;20.90;;;13.63;;
6723;SDS011;3399;52.530;13.304;2023-12-04T07:55:47;21.90;;;13.87;;
6723;SDS011;3399;52.530;13.304;2023-12-04T07:58:16;22.93;;;13.77;;
6723;SDS011;3399;52.530;13.304;2023-12-04T08:00:43;20.23;;;12.90;;
6723;SDS011;3399;52.530;13.304;2023-12-04T08:03:09;22.83;;;14.27;;
6723;SDS011;3399;52.530;13.304;2023-12-04T08:05:35;20.00;;;12.73;;
6723;SDS011;3399;52.530;13.304;2023-12-04T08:08:01;18.13;;;12.37;;
6723;SDS011;3399;52.530;13.304;2023-12-04T08:10:27;18.87;;;13.33;;
6723;SDS011;3399;52.530;13.304;2023-12-04T08:12:52;19.77;;;13.20;;
6723;SDS011;3399;52.530;13.304;2023-12-04T08:15:18;21.03;;;13.33;;
6723;SDS011;3399;52.530;13.304;2023-12-04T08:17:43;19.80;;;13.43;;
6723;SDS011;3399;52.530;13.304;2023-12-04T08:20:09;21.30;;;13.70;;
6723;SDS011;3399;52.530;13.304;2023-12-04T08:22:41;19.50;;;12.87;;
6723;SDS011;3399;52.530;13.304;2023-12-04T08:25:07;20.90;;;13.57;;
6723;SDS011;3399;52.530;13.304;2023-12-04T08:27:33;21.47;;;13.83;;
6723;SDS011;3399;52.530;13.304;2023-12-04T08:29:59;21.33;;;13.23;;
6723;SDS011;3399;52.530;13.304;2023-12-04T08:32:24;21.17;;;13.27;;
6723;SDS011;3399;52.530;13.304;2023-12-04T08:34:53;21.53;;;14.07;;
6723;SDS011;3399;52.530;13.304;2023-12-04T08:37:19;23.50;;;13.40;;
6723;SDS011;3399;52.530;13.304;2023-12-04T08:39:45;21.37;;;13.03;;
6723;SDS011;3399;52.530;13.304;2023-12-04T08:42:11;18.10;;;11.93;;
6723;SDS011;3399;52.530;13.304;2023-12-04T08:44:37;23.57;;;13.33;;
6723;SDS011;3399;52.530;13.304;2023-12-04T08:47:03;20.80;;;12.63;;
6723;SDS011;3399;52.530;13.304;2023-12-04T08:49:29;22.37;;;14.10;;
6723;SDS011;3399;52.530;13.304;2023-12-04T08:51:55;22.87;;;14.43;;
6723;SDS011;3399;52.530;13.304;2023-12-04T08:54:20;17.13;;;11.53;;
6723;SDS011;3399;52.530;13.304;2023-12-04T08:56:46;19.90;;;12.87;;
6723;SDS011;3399;52.530;13.304;2023-12-04T08:59:11;19.13;;;13.23;;
6723;SDS011;3399;52.530;13.304;2023-12-04T09:01:38;18.43;;;12.83;;
6723;SDS011;3399;52.530;13.304;2023-12-04T09:04:03;17.30;;;12.13;;
6723;SDS011;3399;52.530;13.304;2023-12-04T09:06:29;21.07;;;14.00;;
6723;SDS011;3399;52.530;13.304;2023-12-04T09:08:55;21.27;;;12.17;;
6723;SDS011;3399;52.530;13.304;2023-12-04T09:11:20;21.43;;;13.57;;
6723;SDS011;3399;52.530;13.304;2023-12-04T09:13:46;17.07;;;12.10;;
6723;SDS011;3399;52.530;13.304;2023-12-04T09:16:12;22.97;;;14.00;;
6723;SDS011;3399;52.530;13.304;2023-12-04T09:18:38;19.33;;;13.90;;
6723;SDS011;3399;52.530;13.304;2023-12-04T09:21:04;17.23;;;11.30;;
6723;SDS011;3399;52.530;13.304;2023-12-04T09:23:30;19.93;;;12.60;;
6723;SDS011;3399;52.530;13.304;2023-12-04T09:25:55;20.33;;;14.57;;
6723;SDS011;3399;52.530;13.304;2023-12-04T09:28:21;20.30;;;14.37;;
6723;SDS011;3399;52.530;13.304;2023-12-04T09:30:46;17.63;;;12.57;;
6723;SDS011;3399;52.530;13.304;2023-12-04T09:33:12;20.53;;;13.73;;
6723;SDS011;3399;52.530;13.304;2023-12-04T09:35:37;18.47;;;12.60;;
6723;SDS011;3399;52.530;13.304;2023-12-04T09:38:03;17.10;;;11.40;;
6723;SDS011;3399;52.530;13.304;2023-12-04T09:40:28;18.23;;;12.07;;
6723;SDS011;3399;52.530;13.304;2023-12-04T09:42:54;16.47;;;10.90;;
6723;SDS011;3399;52.530;13.304;2023-12-04T09:45:20;16.77;;;11.87;;
6723;SDS011;3399;52.530;13.304;2023-12-04T09:47:48;21.37;;;11.73;;
6723;SDS011;3399;52.530;13.304;2023-12-04T09:50:14;19.60;;;12.23;;
6723;SDS011;3399;52.530;13.304;2023-12-04T09:52:42;27.80;;;14.20;;
6723;SDS011;3399;52.530;13.304;2023-12-04T09:55:07;16.80;;;12.37;;
6723;SDS011;3399;52.530;13.304;2023-12-04T09:57:33;15.40;;;11.20;;
6723;SDS011;3399;52.530;13.304;2023-12-04T10:00:00;19.03;;;11.77;;
6723;SDS011;3399;52.530;13.304;2023-12-04T10:02:27;22.27;;;13.20;;
6723;SDS011;3399;52.530;13.304;2023-12-04T10:04:53;19.07;;;12.27;;
6723;SDS011;3399;52.530;13.304;2023-12-04T10:07:19;17.47;;;11.87;;
6723;SDS011;3399;52.530;13.304;2023-12-04T10:09:44;17.47;;;11.83;;
6723;SDS011;3399;52.530;13.304;2023-12-04T10:12:10;19.13;;;12.40;;
6723;SDS011;3399;52.530;13.304;2023-12-04T10:14:35;18.83;;;12.57;;
6723;SDS011;3399;52.530;13.304;2023-12-04T10:17:13;16.73;;;10.93;;
6723;SDS011;3399;52.530;13.304;2023-12-04T10:19:40;20.20;;;12.30;;
6723;SDS011;3399;52.530;13.304;2023-12-04T10:22:07;20.07;;;12.53;;
6723;SDS011;3399;52.530;13.304;2023-12-04T10:24:35;15.83;;;11.60;;
6723;SDS011;3399;52.530;13.304;2023-12-04T10:27:03;18.93;;;11.23;;
6723;SDS011;3399;52.530;13.304;2023-12-04T10:29:30;19.43;;;13.63;;
6723;SDS011;3399;52.530;13.304;2023-12-04T10:32:12;21.43;;;13.17;;
6723;SDS011;3399;52.530;13.304;2023-12-04T10:34:37;23.20;;;12.87;;
6723;SDS011;3399;52.530;13.304;2023-12-04T10:37:04;20.80;;;12.07;;
6723;SDS011;3399;52.530;13.304;2023-12-04T10:39:30;18.13;;;12.07;;
6723;SDS011;3399;52.530;13.304;2023-12-04T10:41:59;15.83;;;12.03;;
6723;SDS011;3399;52.530;13.304;2023-12-04T10:44:26;17.17;;;12.47;;
6723;SDS011;3399;52.530;13.304;2023-12-04T10:46:52;19.40;;;12.17;;
6723;SDS011;3399;52.530;13.304;2023-12-04T10:49:26;17.80;;;11.93;;
6723;SDS011;3399;52.530;13.304;2023-12-04T10:51:53;16.10;;;11.03;;
6723;SDS011;3399;52.530;13.304;2023-12-04T10:54:22;20.53;;;12.63;;
6723;SDS011;3399;52.530;13.304;2023-12-04T10:56:48;21.17;;;13.23;;
6723;SDS011;3399;52.530;13.304;2023-12-04T10:59:17;19.37;;;12.10;;
6723;SDS011;3399;52.530;13.304;2023-12-04T11:01:48;17.33;;;11.30;;
6723;SDS011;3399;52.530;13.304;2023-12-04T11:04:16;16.53;;;11.53;;
6723;SDS011;3399;52.530;13.304;2023-12-04T11:06:45;16.03;;;10.60;;
6723;SDS011;3399;52.530;13.304;2023-12-04T11:09:15;19.00;;;12.23;;
6723;SDS011;3399;52.530;13.304;2023-12-04T11:11:44;17.13;;;11.47;;
6723;SDS011;3399;52.530;13.304;2023-12-04T11:14:16;15.73;;;10.87;;
6723;SDS011;3399;52.530;13.304;2023-12-04T11:16:57;17.43;;;11.43;;
6723;SDS011;3399;52.530;13.304;2023-12-04T11:19:39;15.00;;;11.40;;
6723;SDS011;3399;52.530;13.304;2023-12-04T11:22:20;18.00;;;11.17;;
6723;SDS011;3399;52.530;13.304;2023-12-04T11:24:47;17.27;;;11.83;;
6723;SDS011;3399;52.530;13.304;2023-12-04T11:27:14;17.77;;;10.83;;
6723;SDS011;3399;52.530;13.304;2023-12-04T11:29:41;17.77;;;12.30;;
6723;SDS011;3399;52.530;13.304;2023-12-04T11:32:07;18.30;;;12.57;;
6723;SDS011;3399;52.530;13.304;2023-12-04T11:34:37;17.40;;;10.90;;
6723;SDS011;3399;52.530;13.304;2023-12-04T11:37:12;20.30;;;12.73;;
6723;SDS011;3399;52.530;13.304;2023-12-04T11:39:38;18.07;;;11.47;;
6723;SDS011;3399;52.530;13.304;2023-12-04T11:42:06;17.87;;;11.03;;
6723;SDS011;3399;52.530;13.304;2023-12-04T11:44:32;17.40;;;10.97;;
6723;SDS011;3399;52.530;13.304;2023-12-04T11:47:04;15.80;;;11.00;;
6723;SDS011;3399;52.530;13.304;2023-12-04T11:49:31;16.03;;;10.77;;
6723;SDS011;3399;52.530;13.304;2023-12-04T11:51:58;14.13;;;10.93;;
6723;SDS011;3399;52.530;13.304;2023-12-04T11:54:25;15.63;;;11.00;;
6723;SDS011;3399;52.530;13.304;2023-12-04T11:56:58;16.90;;;10.27;;
6723;SDS011;3399;52.530;13.304;2023-12-04T11:59:26;15.03;;;10.77;;
6723;SDS011;3399;52.530;13.304;2023-12-04T12:01:55;16.00;;;10.57;;
6723;SDS011;3399;52.530;13.304;2023-12-04T12:04:25;18.87;;;12.17;;
6723;SDS011;3399;52.530;13.304;2023-12-04T12:06:51;16.70;;;11.60;;
6723;SDS011;3399;52.530;13.304;2023-12-04T12:09:17;16.73;;;11.57;;
6723;SDS011;3399;52.530;13.304;2023-12-04T12:11:46;15.47;;;10.97;;
6723;SDS011;3399;52.530;13.304;2023-12-04T12:14:11;17.77;;;11.53;;
6723;SDS011;3399;52.530;13.304;2023-12-04T12:16:38;14.93;;;10.53;;
6723;SDS011;3399;52.530;13.304;2023-12-04T12:19:03;15.33;;;10.67;;
6723;SDS011;3399;52.530;13.304;2023-12-04T12:21:29;17.27;;;9.77;;
6723;SDS011;3399;52.530;13.304;2023-12-04T12:23:55;14.47;;;11.23;;
6723;SDS011;3399;52.530;13.304;2023-12-04T12:26:20;16.33;;;11.10;;
6723;SDS011;3399;52.530;13.304;2023-12-04T12:28:46;13.40;;;9.77;;
6723;SDS011;3399;52.530;13.304;2023-12-04T12:31:11;16.63;;;10.40;;
6723;SDS011;3399;52.530;13.304;2023-12-04T12:33:37;14.70;;;10.37;;
6723;SDS011;3399;52.530;13.304;2023-12-04T12:36:02;17.80;;;11.20;;
6723;SDS011;3399;52.530;13.304;2023-12-04T12:38:29;15.07;;;11.50;;
6723;SDS011;3399;52.530;13.304;2023-12-04T12:40:59;14.77;;;11.13;;
6723;SDS011;3399;52.530;13.304;2023-12-04T12:43:27;15.27;;;11.07;;
6723;SDS011;3399;52.530;13.304;2023-12-04T12:45:53;15.40;;;10.80;;
6723;SDS011;3399;52.530;13.304;2023-12-04T12:48:18;15.60;;;10.57;;
6723;SDS011;3399;52.530;13.304;2023-12-04T12:50:45;15.27;;;10.63;;
6723;SDS011;3399;52.530;13.304;2023-12-04T12:53:11;13.70;;;10.13;;
6723;SDS011;3399;52.530;13.304;2023-12-04T12:55:38;15.10;;;10.40;;
6723;SDS011;3399;52.530;13.304;2023-12-04T12:58:05;13.03;;;9.73;;
6723;SDS011;3399;52.530;13.304;2023-12-04T13:00:31;13.77;;;10.03;;
6723;SDS011;3399;52.530;13.304;2023-12-04T13:03:00;14.70;;;10.17;;
6723;SDS011;3399;52.530;13.304;2023-12-04T13:05:26;14.70;;;9.83;;
6723;SDS011;3399;52.530;13.304;2023-12-04T13:07:52;17.17;;;11.77;;
6723;SDS011;3399;52.530;13.304;2023-12-04T13:10:17;13.57;;;9.90;;
6723;SDS011;3399;52.530;13.304;2023-12-04T13:12:43;16.07;;;9.87;;
6723;SDS011;3399;52.530;13.304;2023-12-04T13:15:08;16.53;;;10.80;;
6723;SDS011;3399;52.530;13.304;2023-12-04T13:17:35;15.30;;;11.20;;
6723;SDS011;3399;52.530;13.304;2023-12-04T13:20:01;12.83;;;9.90;;
6723;SDS011;3399;52.530;13.304;2023-12-04T13:22:29;16.37;;;11.13;;
6723;SDS011;3399;52.530;13.304;2023-12-04T13:24:54;14.47;;;10.93;;
6723;SDS011;3399;52.530;13.304;2023-12-04T13:27:20;14.93;;;10.83;;
6723;SDS011;3399;52.530;13.304;2023-12-04T13:29:45;16.43;;;11.10;;
6723;SDS011;3399;52.530;13.304;2023-12-04T13:32:15;14.23;;;11.30;;
6723;SDS011;3399;52.530;13.304;2023-12-04T13:34:41;15.17;;;11.73;;
6723;SDS011;3399;52.530;13.304;2023-12-04T13:37:06;17.20;;;11.70;;
6723;SDS011;3399;52.530;13.304;2023-12-04T13:39:32;15.07;;;10.73;;
6723;SDS011;3399;52.530;13.304;2023-12-04T13:42:26;15.80;;;10.73;;
6723;SDS011;3399;52.530;13.304;2023-12-04T13:45:11;13.10;;;10.10;;
6723;SDS011;3399;52.530;13.304;2023-12-04T13:47:38;13.13;;;10.60;;
6723;SDS011;3399;52.530;13.304;2023-12-04T13:50:05;17.50;;;11.97;;
6723;SDS011;3399;52.530;13.304;2023-12-04T13:52:33;14.33;;;9.57;;
6723;SDS011;3399;52.530;13.304;2023-12-04T13:54:59;16.20;;;11.07;;
6723;SDS011;3399;52.530;13.304;2023-12-04T13:57:25;16.03;;;11.00;;
6723;SDS011;3399;52.530;13.304;2023-12-04T13:59:58;14.87;;;10.70;;
6723;SDS011;3399;52.530;13.304;2023-12-04T14:02:25;15.90;;;10.87;;
6723;SDS011;3399;52.530;13.304;2023-12-04T14:04:51;15.43;;;10.87;;
6723;SDS011;3399;52.530;13.304;2023-12-04T14:07:16;16.80;;;10.33;;
6723;SDS011;3399;52.530;13.304;2023-12-04T14:09:43;16.70;;;11.17;;
6723;SDS011;3399;52.530;13.304;2023-12-04T14:12:10;16.00;;;11.57;;
6723;SDS011;3399;52.530;13.304;2023-12-04T14:14:36;16.67;;;11.30;;
6723;SDS011;3399;52.530;13.304;2023-12-04T14:17:02;15.53;;;10.97;;
6723;SDS011;3399;52.530;13.304;2023-12-04T14:19:29;16.20;;;11.03;;
6723;SDS011;3399;52.530;13.304;2023-12-04T14:21:55;17.10;;;11.87;;
6723;SDS011;3399;52.530;13.304;2023-12-04T14:24:20;17.63;;;12.60;;
6723;SDS011;3399;52.530;13.304;2023-12-04T14:26:46;16.47;;;12.57;;
6723;SDS011;3399;52.530;13.304;2023-12-04T14:29:15;17.73;;;11.43;;
6723;SDS011;3399;52.530;13.304;2023-12-04T14:31:41;18.20;;;12.37;;